createdAt,value
2023-04-09T00:04:32.043Z,27.2
2023-04-09T00:06:29.649Z,27.9
2023-04-09T00:12:22.371Z,28.2
2023-04-09T00:14:19.970Z,30.2
2023-04-09T00:16:17.609Z,26.9
2023-04-09T00:20:20.735Z,25.2
2023-04-09T00:22:18.283Z,26.7
2023-04-09T00:23:21.023Z,29
2023-04-09T00:27:16.219Z,29
2023-04-09T00:29:13.820Z,28.6
2023-04-09T00:35:14.521Z,25.4
2023-04-09T00:37:12.100Z,31
2023-04-09T00:39:09.687Z,24.7
2023-04-09T00:41:07.284Z,28
2023-04-09T00:43:04.855Z,26.3
2023-04-09T00:45:10.361Z,28.6
2023-04-09T00:47:07.965Z,27.1
2023-04-09T00:49:05.585Z,26.2
2023-04-09T00:51:03.133Z,28.6
2023-04-09T00:53:00.772Z,27.6
2023-04-09T00:59:01.480Z,26.4
2023-04-09T01:00:59.131Z,26.2
2023-04-09T01:02:56.757Z,23
2023-04-09T01:04:54.292Z,25.8
2023-04-09T01:06:51.910Z,24.7
2023-04-09T01:08:49.606Z,24.4
2023-04-09T01:12:52.580Z,28
2023-04-09T01:14:50.175Z,23.5
2023-04-09T01:16:47.832Z,28.2
2023-04-09T01:19:10.687Z,23.8
2023-04-09T01:21:08.243Z,27.4
2023-04-09T01:25:11.411Z,28.5
2023-04-09T01:27:08.995Z,31.5
2023-04-09T01:29:06.568Z,29.3
2023-04-09T01:42:57.693Z,26.1
2023-04-09T01:46:52.888Z,25.7
2023-04-09T01:50:48.105Z,26.6
2023-04-09T01:52:53.609Z,25.8
2023-04-09T01:54:51.223Z,29.2
2023-04-09T01:56:48.817Z,25.6
2023-04-09T02:00:44.019Z,26.1
2023-04-09T02:02:41.686Z,24.1
2023-04-09T02:04:40.748Z,26.1
2023-04-09T02:06:46.215Z,26.1
2023-04-09T02:08:43.823Z,27.4
2023-04-09T02:10:41.417Z,25.9
2023-04-09T02:11:44.155Z,29.4
2023-04-09T02:15:40.421Z,25.5
2023-04-09T02:17:36.957Z,26.7
2023-04-09T02:19:42.473Z,28.3
2023-04-09T02:21:40.064Z,28.5
2023-04-09T02:25:35.280Z,27.6
2023-04-09T02:27:32.889Z,24.9
2023-04-09T02:29:30.503Z,26.8
2023-04-09T02:31:28.237Z,25.9
2023-04-09T02:35:31.303Z,27.7
2023-04-09T02:37:28.815Z,25.3
2023-04-09T02:45:19.220Z,24.9
2023-04-09T02:47:24.718Z,24.7
2023-04-09T02:49:22.314Z,24.7
2023-04-09T02:51:19.924Z,23.6
2023-04-09T02:55:15.138Z,28.4
2023-04-09T02:59:10.324Z,25.6
2023-04-09T03:03:13.660Z,24.8
2023-04-09T03:05:11.039Z,22.7
2023-04-09T03:06:13.790Z,29
2023-04-09T03:10:08.985Z,23.2
2023-04-09T03:12:06.576Z,22.8
2023-04-09T03:14:12.108Z,25
2023-04-09T03:20:04.900Z,22.7
2023-04-09T03:25:57.678Z,24.6
2023-04-09T03:28:03.142Z,25.4
2023-04-09T03:30:00.775Z,24.2
2023-04-09T03:31:58.518Z,24
2023-04-09T03:47:47.205Z,21.1
2023-04-09T03:49:44.706Z,22.1
2023-04-09T03:51:42.292Z,21.5
2023-04-09T03:53:39.904Z,24
2023-04-09T03:55:45.416Z,22.5
2023-04-09T03:57:43.183Z,21.8
2023-04-09T03:59:40.634Z,21.9
2023-04-09T04:00:43.387Z,19.8
2023-04-09T04:06:36.144Z,22.9
2023-04-09T04:14:34.516Z,22.5
2023-04-09T04:16:32.079Z,21
2023-04-09T04:18:29.679Z,22
2023-04-09T04:22:32.779Z,23.1
2023-04-09T04:30:23.195Z,19.5
2023-04-09T04:32:20.764Z,20
2023-04-09T04:34:18.366Z,25.2
2023-04-09T04:36:23.871Z,22.7
2023-04-09T04:38:21.457Z,19.5
2023-04-09T04:44:14.221Z,19.7
2023-04-09T04:48:09.450Z,21.2
2023-04-09T04:50:14.914Z,19.7
2023-04-09T04:52:12.550Z,22.6
2023-04-09T04:54:10.151Z,21.7
2023-04-09T04:56:32.947Z,22.2
2023-04-09T05:00:28.173Z,24.2
2023-04-09T05:06:28.825Z,23.1
2023-04-09T05:08:26.441Z,22.9
2023-04-09T05:10:24.071Z,23.2
2023-04-09T05:12:21.660Z,20.2
2023-04-09T05:14:19.241Z,22.8
2023-04-09T05:18:22.382Z,21.6
2023-04-09T05:24:15.157Z,23.8
2023-04-09T05:34:11.037Z,22.2
2023-04-09T05:36:08.658Z,21
2023-04-09T05:38:06.222Z,22.7
2023-04-09T05:40:03.826Z,23
2023-04-09T05:42:01.505Z,21.3
2023-04-09T05:44:06.962Z,23.6
2023-04-09T05:46:04.584Z,24
2023-04-09T05:48:02.175Z,25.8
2023-04-09T05:49:04.889Z,26.5
2023-04-09T05:53:00.141Z,24.3
2023-04-09T05:54:57.775Z,19.2
2023-04-09T05:57:03.382Z,23.2
2023-04-09T06:02:56.096Z,23.5
2023-04-09T06:06:51.207Z,21.4
2023-04-09T06:08:48.815Z,20.6
2023-04-09T06:12:51.919Z,25.3
2023-04-09T06:14:49.536Z,26.5
2023-04-09T06:16:47.131Z,24.1
2023-04-09T06:22:39.917Z,21.4
2023-04-09T06:24:45.415Z,23.9
2023-04-09T06:26:43.021Z,20.6
2023-04-09T06:28:40.603Z,23.4
2023-04-09T06:34:33.385Z,21.8
2023-04-09T06:36:31.037Z,22.8
2023-04-09T06:40:34.097Z,21.2
2023-04-09T06:42:31.690Z,26
2023-04-09T06:43:34.408Z,24.8
2023-04-09T06:47:29.668Z,22.9
2023-04-09T06:49:27.227Z,21.8
2023-04-09T06:57:25.524Z,21.2
2023-04-09T06:59:23.109Z,21
2023-04-09T07:03:18.491Z,24.2
2023-04-09T07:05:23.780Z,20.6
2023-04-09T07:13:14.156Z,21.4
2023-04-09T07:15:11.772Z,20.7
2023-04-09T07:17:09.340Z,20
2023-04-09T07:19:14.851Z,21.2
2023-04-09T07:21:12.446Z,20.6
2023-04-09T07:23:10.044Z,22.6
2023-04-09T07:25:07.637Z,22.3
2023-04-09T07:27:05.259Z,23.6
2023-04-09T07:29:02.867Z,20.2
2023-04-09T07:31:00.472Z,19.5
2023-04-09T07:33:05.972Z,20.7
2023-04-09T07:35:03.559Z,23.3
2023-04-09T07:37:01.156Z,18.6
2023-04-09T07:38:03.893Z,21.8
2023-04-09T07:40:01.519Z,23.4
2023-04-09T07:41:59.103Z,19.3
2023-04-09T07:43:56.734Z,20.9
2023-04-09T07:46:03.709Z,22.7
2023-04-09T07:48:01.316Z,24.6
2023-04-09T07:49:58.861Z,25.3
2023-04-09T08:07:45.146Z,24.3
2023-04-09T08:09:42.756Z,22
2023-04-09T08:11:40.362Z,24.8
2023-04-09T08:13:45.855Z,25.4
2023-04-09T08:15:43.445Z,23.8
2023-04-09T08:17:41.088Z,24.1
2023-04-09T08:19:41.139Z,20.7
2023-04-09T08:21:36.244Z,21.2
2023-04-09T08:23:33.862Z,23
2023-04-09T08:25:31.458Z,22.7
2023-04-09T08:33:52.943Z,20.7
2023-04-09T08:37:48.195Z,19.2
2023-04-09T08:41:51.294Z,22.1
2023-04-09T08:45:46.519Z,21.1
2023-04-09T08:47:44.169Z,21.9
2023-04-09T08:49:41.712Z,19.9
2023-04-09T08:51:39.294Z,20.3
2023-04-09T08:53:44.786Z,18.5
2023-04-09T08:57:39.972Z,22.9
2023-04-09T08:59:37.574Z,25.8
2023-04-09T09:01:35.219Z,21.6
2023-04-09T09:05:30.363Z,22
2023-04-09T09:07:35.891Z,18.2
2023-04-09T09:11:31.057Z,16.5
2023-04-09T09:15:26.212Z,17.6
2023-04-09T09:19:21.450Z,18.5
2023-04-09T09:23:24.536Z,17.4
2023-04-09T09:25:22.140Z,17.4
2023-04-09T09:26:24.932Z,19.1
2023-04-09T09:32:17.735Z,18.4
2023-04-09T09:34:23.199Z,18.8
2023-04-09T09:42:13.609Z,18.7
2023-04-09T09:44:11.216Z,15.1
2023-04-09T09:46:08.880Z,14.8
2023-04-09T09:48:14.318Z,15.5
2023-04-09T09:50:11.915Z,18.3
2023-04-09T09:54:07.101Z,14.9
2023-04-09T09:56:04.714Z,15.5
2023-04-09T09:58:02.310Z,18.2
2023-04-09T09:59:59.895Z,15.4
2023-04-09T10:02:05.712Z,17.7
2023-04-09T10:04:03.048Z,16.9
2023-04-09T10:06:00.604Z,15.6
2023-04-09T10:07:58.217Z,18.1
2023-04-09T10:09:55.814Z,14.6
2023-04-09T10:15:56.628Z,17.1
2023-04-09T10:22:52.139Z,14.3
2023-04-09T10:26:47.352Z,16.5
2023-04-09T10:28:52.994Z,16
2023-04-09T10:34:45.715Z,14.2
2023-04-09T10:36:43.304Z,14.4
2023-04-09T10:46:39.268Z,12.7
2023-04-09T10:50:34.422Z,14.8
2023-04-09T10:52:32.027Z,14
2023-04-09T10:54:29.615Z,13.7
2023-04-09T10:58:32.723Z,13.7
2023-04-09T11:00:30.323Z,12.5
2023-04-09T11:02:28.025Z,14.9
2023-04-09T11:04:25.495Z,15.5
2023-04-09T11:06:23.103Z,16.3
2023-04-09T11:15:24.202Z,12.9
2023-04-09T11:17:21.739Z,12.5
2023-04-09T11:19:19.285Z,14.2
2023-04-09T11:21:18.110Z,16.9
2023-04-09T11:25:19.987Z,14.9
2023-04-09T11:27:17.570Z,14.7
2023-04-09T11:31:12.728Z,12.9
2023-04-09T11:35:07.774Z,11.5
2023-04-09T11:37:13.278Z,9.9
2023-04-09T11:39:10.863Z,11
2023-04-09T11:41:08.375Z,12.5
2023-04-09T11:43:05.936Z,10.5
2023-04-09T11:45:03.479Z,10.6
2023-04-09T11:47:01.043Z,10.6
2023-04-09T11:48:58.530Z,10.4
2023-04-09T11:51:04.004Z,8.5
2023-04-09T11:53:01.560Z,8.5
2023-04-09T11:56:56.577Z,6.9
2023-04-09T11:58:54.249Z,7.6
2023-04-09T12:02:49.265Z,11.3
2023-04-09T12:04:54.755Z,9.6
2023-04-09T12:06:52.044Z,9.5
2023-04-09T12:11:10.128Z,10
2023-04-09T12:13:07.574Z,9.9
2023-04-09T12:15:05.049Z,8.3
2023-04-09T12:17:10.483Z,10.5
2023-04-09T12:19:07.930Z,10
2023-04-09T12:21:05.428Z,10.1
2023-04-09T12:23:02.885Z,9.3
2023-04-09T12:28:55.226Z,10.5
2023-04-09T12:34:55.528Z,11.1
2023-04-09T12:36:52.982Z,11.2
2023-04-09T12:44:50.688Z,10.8
2023-04-09T12:46:48.107Z,11.7
2023-04-09T12:50:42.939Z,8.4
2023-04-09T12:56:35.136Z,9.5
2023-04-09T12:58:40.547Z,16.8
2023-04-09T13:00:37.930Z,10
2023-04-09T13:02:35.499Z,10.2
2023-04-09T13:03:38.215Z,10.6
2023-04-09T13:05:35.419Z,10.5
2023-04-09T13:13:32.887Z,9
2023-04-09T13:15:30.273Z,9.3
2023-04-09T13:17:30.273Z,9.5
2023-04-09T13:19:25.021Z,10.4
2023-04-09T13:27:23.933Z,10.7
2023-04-09T13:29:21.277Z,9.5
2023-04-09T13:31:18.672Z,11.5
2023-04-09T13:39:15.985Z,9
2023-04-09T13:41:13.298Z,11.5
2023-04-09T13:47:05.277Z,10.6
2023-04-09T13:49:02.582Z,11.1
2023-04-09T13:50:59.905Z,9.8
2023-04-09T13:53:05.259Z,30.1
2023-04-09T13:55:02.518Z,10.6
2023-04-09T13:58:02.476Z,10.5
2023-04-09T13:59:59.765Z,11
2023-04-09T14:01:57.189Z,9.9
2023-04-09T14:03:56.063Z,10
2023-04-09T14:05:59.669Z,9.7
2023-04-09T14:07:56.952Z,11.9
2023-04-09T14:09:54.226Z,9.8
2023-04-09T14:13:48.831Z,10.7
2023-04-09T14:15:46.191Z,10.3
2023-04-09T14:17:43.418Z,9.9
2023-04-09T14:19:48.695Z,10.2
2023-04-09T14:21:45.969Z,9.8
2023-04-09T14:23:43.375Z,11
2023-04-09T14:29:35.188Z,8.4
2023-04-09T14:31:32.576Z,10.6
2023-04-09T14:33:37.789Z,9.3
2023-04-09T14:35:35.176Z,9.9
2023-04-09T14:37:32.408Z,10.2
2023-04-09T14:39:29.725Z,9.4
2023-04-09T14:47:26.990Z,11.7
2023-04-09T14:49:24.238Z,9.9
2023-04-09T14:52:24.204Z,10.2
2023-04-09T14:54:21.505Z,9.4
2023-04-09T14:56:18.813Z,11
2023-04-09T15:00:21.487Z,9.7
2023-04-09T15:06:13.418Z,9.5
2023-04-09T15:08:10.745Z,8
2023-04-09T15:10:08.080Z,9.5
2023-04-09T15:16:08.227Z,7
2023-04-09T15:18:05.923Z,10.2
2023-04-09T15:20:03.049Z,8.5
2023-04-09T15:22:00.501Z,8.3
2023-04-09T15:23:57.933Z,8.6
2023-04-09T15:25:55.420Z,7
2023-04-09T15:28:00.816Z,9.1
2023-04-09T15:29:58.320Z,9.1
2023-04-09T15:31:55.875Z,10.5
2023-04-09T15:33:53.352Z,9
2023-04-09T15:35:50.876Z,8.3
2023-04-09T15:39:45.882Z,13.7
2023-04-09T15:41:51.341Z,11.3
2023-04-09T15:43:48.888Z,10.7
2023-04-09T15:45:46.448Z,7.5
2023-04-09T15:48:13.346Z,8.9
2023-04-09T15:50:10.771Z,9.8
2023-04-09T15:52:08.352Z,11.4
2023-04-09T15:54:13.813Z,11.3
2023-04-09T15:56:12.141Z,9.9
2023-04-09T16:17:52.555Z,10.1
2023-04-09T16:19:50.107Z,8.3
2023-04-09T16:21:55.592Z,9.6
2023-04-09T16:27:48.349Z,10.6
2023-04-09T16:29:45.957Z,7.4
2023-04-09T16:31:43.774Z,7
2023-04-09T16:33:41.107Z,8.2
2023-04-09T16:35:46.698Z,9.8
2023-04-09T16:37:44.194Z,9.2
2023-04-09T16:39:41.810Z,7.3
2023-04-09T16:40:44.570Z,8.4
2023-04-09T16:42:42.190Z,8.6
2023-04-09T16:44:39.740Z,8.9
2023-04-09T16:46:37.348Z,9
2023-04-09T16:48:42.833Z,8.7
2023-04-09T16:50:40.467Z,9.4
2023-04-09T16:54:35.630Z,7.4
2023-04-09T16:56:33.217Z,7.3
2023-04-09T16:58:30.816Z,9.4
2023-04-09T17:10:24.328Z,9.4
2023-04-09T17:12:21.871Z,8.8
2023-04-09T17:16:25.052Z,7.9
2023-04-09T17:24:15.403Z,7.4
2023-04-09T17:32:13.771Z,8.2
2023-04-09T17:34:11.361Z,8.6
2023-04-09T17:35:14.139Z,8.4
2023-04-09T17:39:09.339Z,8
2023-04-09T17:49:05.323Z,8.7
2023-04-09T17:51:02.940Z,8.6
2023-04-09T17:53:00.540Z,7.4
2023-04-09T17:54:58.151Z,11.9
2023-04-09T17:57:03.657Z,8.8
2023-04-09T18:04:54.158Z,12
2023-04-09T18:06:51.698Z,13.3
2023-04-09T18:08:49.277Z,12
2023-04-09T18:11:01.641Z,11.5
2023-04-09T18:16:47.655Z,10
2023-04-09T18:26:43.599Z,89
2023-04-09T18:28:41.204Z,13.3
2023-04-09T18:29:43.993Z,11.7
2023-04-09T18:31:41.675Z,14.1
2023-04-09T18:35:36.843Z,12.7
2023-04-09T18:37:42.361Z,11.1
2023-04-09T18:39:40.031Z,15.6
2023-04-09T18:41:37.593Z,13
2023-04-09T18:43:35.202Z,12.1
2023-04-09T18:51:33.534Z,9.1
2023-04-09T18:53:31.132Z,12.1
2023-04-09T19:03:19.463Z,12
2023-04-09T19:09:21.560Z,17
2023-04-09T19:15:14.436Z,26.4
2023-04-09T19:17:12.034Z,21.1
2023-04-09T19:19:17.569Z,37.5
2023-04-09T19:23:12.788Z,18.3
2023-04-09T19:25:39.704Z,16.3
2023-04-09T19:27:37.332Z,13.7
2023-04-09T19:31:40.576Z,15.6
2023-04-09T19:33:38.097Z,15.9
2023-04-09T19:35:35.775Z,15.9
2023-04-09T19:37:33.382Z,12.6
2023-04-09T19:41:28.613Z,19.5
2023-04-09T19:49:26.985Z,18.1
2023-04-09T19:53:22.244Z,19.2
2023-04-09T20:01:20.646Z,23.4
2023-04-09T20:15:11.856Z,16.7
2023-04-09T20:17:09.468Z,17.5
2023-04-09T20:35:58.818Z,25.1
2023-04-09T20:37:56.338Z,29.6
2023-04-09T20:40:01.898Z,26.7
2023-04-09T20:41:59.527Z,28.1
2023-04-09T20:43:57.130Z,24.1
2023-04-09T20:45:54.747Z,25.5
2023-04-09T20:47:52.373Z,29.3
2023-04-09T20:49:49.964Z,28.8
2023-04-09T20:51:47.572Z,26.1
2023-04-09T20:53:53.103Z,31.2
2023-04-09T20:57:48.313Z,21.2
2023-04-09T20:59:45.939Z,23.3
2023-04-09T21:05:38.807Z,21.7
2023-04-09T21:09:41.994Z,20.5
2023-04-09T21:11:39.567Z,26.7
2023-04-09T21:12:42.333Z,21
2023-04-09T21:14:39.946Z,23
2023-04-09T21:18:35.242Z,24.2
2023-04-09T21:20:40.755Z,22.7
2023-04-09T21:24:36.013Z,24.5
2023-04-09T21:26:48.701Z,26.5
2023-04-09T21:28:31.233Z,25.9
2023-04-09T21:36:29.694Z,23.9
2023-04-09T21:38:27.294Z,26.2
2023-04-09T21:40:24.931Z,23.9
2023-04-09T21:42:22.535Z,20.5
2023-04-09T21:44:20.176Z,22.8
2023-04-09T21:52:18.611Z,21.6
2023-04-09T21:54:16.208Z,20.7
2023-04-09T21:56:13.838Z,22.8
2023-04-09T22:00:09.061Z,20
2023-04-09T22:02:14.673Z,22.9
2023-04-09T22:04:12.345Z,23.9
2023-04-09T22:06:09.895Z,22.6
2023-04-09T22:07:12.639Z,21.6
2023-04-09T22:13:05.517Z,18.8
2023-04-09T22:15:11.113Z,23.9
2023-04-09T22:24:59.186Z,20.6
2023-04-09T22:26:56.818Z,23.6
2023-04-09T22:29:03.843Z,23
2023-04-09T22:32:57.600Z,22.9
2023-04-09T22:34:55.158Z,24.1
2023-04-09T22:36:52.785Z,24.7
2023-04-09T22:38:50.419Z,23.3
2023-04-09T22:42:53.552Z,22.7
2023-04-09T22:44:51.202Z,23.4
2023-04-09T22:46:48.810Z,24.3
2023-04-09T22:48:46.385Z,23.4
2023-04-09T22:52:41.620Z,21.7
2023-04-09T22:56:44.728Z,25.9
2023-04-09T22:58:42.374Z,29.5
2023-04-09T23:03:07.129Z,27.9
2023-04-09T23:05:04.717Z,30.9
2023-04-09T23:09:07.702Z,26.4
2023-04-09T23:13:02.978Z,24.1
2023-04-09T23:15:00.536Z,23.7
2023-04-09T23:16:58.139Z,26
2023-04-09T23:18:55.934Z,25.1
2023-04-09T23:20:53.425Z,29
2023-04-09T23:22:58.943Z,24
2023-04-09T23:24:56.617Z,28
2023-04-09T23:26:54.197Z,24.7
2023-04-09T23:28:52.054Z,26.9
2023-04-09T23:30:49.397Z,27.9
2023-04-09T23:32:47.077Z,25.4
2023-04-09T23:34:44.661Z,25.2
2023-04-09T23:36:50.191Z,29.6
2023-04-09T23:38:47.816Z,27.8
2023-04-09T23:40:45.431Z,27
2023-04-09T23:44:40.709Z,27.2
2023-04-09T23:46:38.311Z,27.8
2023-04-09T23:48:35.934Z,27
2023-04-09T23:50:41.512Z,26.7
2023-04-09T23:52:39.104Z,27.6
2023-04-09T23:54:36.714Z,27.6
2023-04-09T23:55:39.461Z,29.1
2023-04-09T23:57:37.085Z,23.6
2023-04-09T23:59:34.687Z,26.9
